createdAt,value
2018-06-15T00:00:36.333Z,15.80
2018-06-15T00:01:36.231Z,15.82
2018-06-15T00:02:36.139Z,15.77
2018-06-15T00:03:36.038Z,15.76
2018-06-15T00:04:35.945Z,15.77
2018-06-15T00:05:35.854Z,15.76
2018-06-15T00:06:35.751Z,15.75
2018-06-15T00:07:35.659Z,15.75
2018-06-15T00:08:35.569Z,15.82
2018-06-15T00:09:35.466Z,15.90
2018-06-15T00:10:35.374Z,15.90
2018-06-15T00:11:35.271Z,15.90
2018-06-15T00:12:35.181Z,15.95
2018-06-15T00:13:35.091Z,15.97
2018-06-15T00:14:34.986Z,15.92
2018-06-15T00:15:34.896Z,16.02
2018-06-15T00:16:34.794Z,16.02
2018-06-15T00:17:34.701Z,16.02
2018-06-15T00:18:34.611Z,16.00
2018-06-15T00:19:34.508Z,16.05
2018-06-15T00:20:34.416Z,16.00
2018-06-15T00:21:34.314Z,16.08
2018-06-15T00:22:34.224Z,15.98
2018-06-15T00:23:34.130Z,16.04
2018-06-15T00:24:34.028Z,16.08
2018-06-15T00:25:33.939Z,16.08
2018-06-15T00:26:33.835Z,16.09
2018-06-15T00:27:33.743Z,16.17
2018-06-15T00:28:33.652Z,16.16
2018-06-15T00:29:33.561Z,16.20
2018-06-15T00:30:33.458Z,16.28
2018-06-15T00:31:33.357Z,16.26
2018-06-15T00:32:33.266Z,16.38
2018-06-15T00:33:33.173Z,16.39
2018-06-15T00:34:33.070Z,16.39
2018-06-15T00:35:32.983Z,16.49
2018-06-15T00:36:32.888Z,16.50
2018-06-15T00:37:32.786Z,16.47
2018-06-15T00:38:32.696Z,16.46
2018-06-15T00:39:32.592Z,16.46
2018-06-15T00:40:32.501Z,16.56
2018-06-15T00:41:32.410Z,16.61
2018-06-15T00:42:32.307Z,16.51
2018-06-15T00:43:32.215Z,16.58
2018-06-15T00:44:32.112Z,16.71
2018-06-15T00:45:32.023Z,16.68
2018-06-15T00:46:31.931Z,16.61
2018-06-15T00:47:31.828Z,16.61
2018-06-15T00:48:31.737Z,16.69
2018-06-15T00:49:31.680Z,16.75
2018-06-15T00:50:31.542Z,16.74
2018-06-15T00:51:31.456Z,16.78
2018-06-15T00:52:31.349Z,16.83
2018-06-15T00:53:31.257Z,16.81
2018-06-15T00:54:31.154Z,16.87
2018-06-15T00:55:31.063Z,16.83
2018-06-15T00:56:30.976Z,16.96
2018-06-15T00:57:30.868Z,16.90
2018-06-15T00:58:30.779Z,16.99
2018-06-15T00:59:30.676Z,17.08
2018-06-15T01:00:30.834Z,17.04
2018-06-15T01:01:30.493Z,17.06
2018-06-15T01:02:30.391Z,17.02
2018-06-15T01:03:30.299Z,17.05
2018-06-15T01:04:30.195Z,17.06
2018-06-15T01:05:30.107Z,17.06
2018-06-15T01:06:30.015Z,17.05
2018-06-15T01:07:29.911Z,17.11
2018-06-15T01:08:29.821Z,17.06
2018-06-15T01:09:29.718Z,17.11
2018-06-15T01:10:29.625Z,17.19
2018-06-15T01:11:29.538Z,17.20
2018-06-15T01:12:29.433Z,17.11
2018-06-15T01:13:29.341Z,17.23
2018-06-15T01:14:29.238Z,17.11
2018-06-15T01:15:29.151Z,17.14
2018-06-15T01:16:29.057Z,17.15
2018-06-15T01:17:28.953Z,17.16
2018-06-15T01:18:28.887Z,17.12
2018-06-15T01:19:28.759Z,17.20
2018-06-15T01:20:28.918Z,17.15
2018-06-15T01:21:28.577Z,17.19
2018-06-15T01:22:28.475Z,17.20
2018-06-15T01:23:28.383Z,17.09
2018-06-15T01:24:28.281Z,17.09
2018-06-15T01:25:28.189Z,17.09
2018-06-15T01:26:28.098Z,17.05
2018-06-15T01:27:27.995Z,17.02
2018-06-15T01:28:27.905Z,17.12
2018-06-15T01:29:27.813Z,17.05
2018-06-15T01:30:27.710Z,17.01
2018-06-15T01:31:27.620Z,17.04
2018-06-15T01:32:27.517Z,17.05
2018-06-15T01:33:27.425Z,17.08
2018-06-15T01:34:27.326Z,16.99
2018-06-15T01:35:27.232Z,17.04
2018-06-15T01:36:27.140Z,17.06
2018-06-15T01:37:27.037Z,17.06
2018-06-15T01:38:26.947Z,17.02
2018-06-15T01:39:26.856Z,16.97
2018-06-15T01:40:26.752Z,16.99
2018-06-15T01:41:26.665Z,17.02
2018-06-15T01:42:26.558Z,17.05
2018-06-15T01:43:26.467Z,16.99
2018-06-15T01:44:26.377Z,17.04
2018-06-15T01:45:26.273Z,17.04
2018-06-15T01:46:26.182Z,17.04
2018-06-15T01:47:26.094Z,17.01
2018-06-15T01:48:25.988Z,17.04
2018-06-15T01:49:25.897Z,16.99
2018-06-15T01:50:26.093Z,17.05
2018-06-15T01:51:25.703Z,17.08
2018-06-15T01:52:25.612Z,17.05
2018-06-15T01:53:25.508Z,17.06
2018-06-15T01:54:25.419Z,17.09
2018-06-15T01:55:25.326Z,17.04
2018-06-15T01:56:25.223Z,17.06
2018-06-15T01:57:25.138Z,17.06
2018-06-15T01:58:25.031Z,17.09
2018-06-15T01:59:24.942Z,17.05
2018-06-15T02:00:24.849Z,16.96
2018-06-15T02:01:24.888Z,16.90
2018-06-15T02:02:24.654Z,16.87
2018-06-15T02:03:24.564Z,16.91
2018-06-15T02:04:24.462Z,16.93
2018-06-15T02:05:24.369Z,16.94
2018-06-15T02:06:24.266Z,16.90
2018-06-15T02:07:24.176Z,16.87
2018-06-15T02:08:24.084Z,16.86
2018-06-15T02:09:23.981Z,16.86
2018-06-15T02:10:23.899Z,16.86
2018-06-15T02:11:23.788Z,16.89
2018-06-15T02:12:23.696Z,16.81
2018-06-15T02:13:23.640Z,16.84
2018-06-15T02:14:23.503Z,16.81
2018-06-15T02:15:23.412Z,16.76
2018-06-15T02:16:23.322Z,16.83
2018-06-15T02:17:23.217Z,16.76
2018-06-15T02:18:23.127Z,16.79
2018-06-15T02:19:23.024Z,16.84
2018-06-15T02:20:23.183Z,16.74
2018-06-15T02:21:22.841Z,16.81
2018-06-15T02:22:22.740Z,16.72
2018-06-15T02:23:22.649Z,16.68
2018-06-15T02:24:22.556Z,16.66
2018-06-15T02:25:22.453Z,16.66
2018-06-15T02:26:22.362Z,16.75
2018-06-15T02:27:22.274Z,16.76
2018-06-15T02:28:22.168Z,16.65
2018-06-15T02:29:22.078Z,16.76
2018-06-15T02:30:21.975Z,16.75
2018-06-15T02:31:21.884Z,16.71
2018-06-15T02:32:21.794Z,16.76
2018-06-15T02:33:21.691Z,16.72
2018-06-15T02:34:21.599Z,16.75
2018-06-15T02:35:21.509Z,16.69
2018-06-15T02:36:21.405Z,16.72
2018-06-15T02:37:21.319Z,16.75
2018-06-15T02:38:21.217Z,16.75
2018-06-15T02:39:21.120Z,16.78
2018-06-15T02:40:21.028Z,16.75
2018-06-15T02:41:20.926Z,16.72
2018-06-15T02:42:20.841Z,16.76
2018-06-15T02:43:20.744Z,16.71
2018-06-15T02:44:20.640Z,16.64
2018-06-15T02:45:20.583Z,16.71
2018-06-15T02:46:20.458Z,16.71
2018-06-15T02:47:20.357Z,16.66
2018-06-15T02:48:20.269Z,16.71
2018-06-15T02:49:20.174Z,16.84
2018-06-15T02:50:20.071Z,16.79
2018-06-15T02:51:19.980Z,16.83
2018-06-15T02:52:19.888Z,16.72
2018-06-15T02:53:19.785Z,16.78
2018-06-15T02:54:19.696Z,16.81
2018-06-15T02:55:19.604Z,16.87
2018-06-15T02:56:19.501Z,16.86
2018-06-15T02:57:19.411Z,16.84
2018-06-15T02:58:19.307Z,16.89
2018-06-15T02:59:19.215Z,16.90
2018-06-15T03:00:19.125Z,16.91
2018-06-15T03:01:19.022Z,16.89
2018-06-15T03:02:18.931Z,16.89
2018-06-15T03:03:18.828Z,16.94
2018-06-15T03:04:18.736Z,16.93
2018-06-15T03:05:18.681Z,16.94
2018-06-15T03:06:18.542Z,16.93
2018-06-15T03:07:18.456Z,16.94
2018-06-15T03:08:18.362Z,16.97
2018-06-15T03:09:18.258Z,16.99
2018-06-15T03:10:18.167Z,17.04
2018-06-15T03:11:18.075Z,17.08
2018-06-15T03:12:17.972Z,17.06
2018-06-15T03:13:17.882Z,17.01
2018-06-15T03:14:17.791Z,16.97
2018-06-15T03:15:17.687Z,16.97
2018-06-15T03:16:17.597Z,16.97
2018-06-15T03:17:17.494Z,16.94
2018-06-15T03:18:17.402Z,16.94
2018-06-15T03:19:17.313Z,16.87
2018-06-15T03:20:17.209Z,16.99
2018-06-15T03:21:17.121Z,16.93
2018-06-15T03:22:17.027Z,16.93
2018-06-15T03:23:16.926Z,16.93
2018-06-15T03:24:16.832Z,16.96
2018-06-15T03:25:17.042Z,16.90
2018-06-15T03:26:16.639Z,16.96
2018-06-15T03:27:16.548Z,16.91
2018-06-15T03:28:16.446Z,16.94
2018-06-15T03:29:16.354Z,16.96
2018-06-15T03:30:16.262Z,17.01
2018-06-15T03:31:16.160Z,16.97
2018-06-15T03:32:16.070Z,16.97
2018-06-15T03:33:15.977Z,17.01
2018-06-15T03:34:15.874Z,17.02
2018-06-15T03:35:15.789Z,17.02
2018-06-15T03:36:15.693Z,17.02
2018-06-15T03:37:15.592Z,17.04
2018-06-15T03:38:15.499Z,17.08
2018-06-15T03:39:15.407Z,17.06
2018-06-15T03:40:15.304Z,16.99
2018-06-15T03:41:15.221Z,17.06
2018-06-15T03:42:15.110Z,17.11
2018-06-15T03:43:15.019Z,17.09
2018-06-15T03:44:14.929Z,17.06
2018-06-15T03:45:14.829Z,17.14
2018-06-15T03:46:14.734Z,17.11
2018-06-15T03:47:14.644Z,17.23
2018-06-15T03:48:14.540Z,17.16
2018-06-15T03:49:14.496Z,17.26
2018-06-15T03:50:14.360Z,17.19
2018-06-15T03:51:14.257Z,17.15
2018-06-15T03:52:14.164Z,17.23
2018-06-15T03:53:14.075Z,17.16
2018-06-15T03:54:13.972Z,17.11
2018-06-15T03:55:14.131Z,17.20
2018-06-15T03:56:13.790Z,17.16
2018-06-15T03:57:13.686Z,17.23
2018-06-15T03:58:13.595Z,17.19
2018-06-15T03:59:13.494Z,17.23
2018-06-15T04:00:13.402Z,17.31
2018-06-15T04:01:13.323Z,17.30
2018-06-15T04:02:13.220Z,17.31
2018-06-15T04:03:13.118Z,17.27
2018-06-15T04:04:13.025Z,17.26
2018-06-15T04:05:13.235Z,17.34
2018-06-15T04:06:12.833Z,17.39
2018-06-15T04:07:12.743Z,17.38
2018-06-15T04:08:12.651Z,17.44
2018-06-15T04:09:12.547Z,17.46
2018-06-15T04:10:12.455Z,17.46
2018-06-15T04:11:12.365Z,17.45
2018-06-15T04:12:12.263Z,17.49
2018-06-15T04:13:12.214Z,17.51
2018-06-15T04:14:12.080Z,17.46
2018-06-15T04:15:11.976Z,17.65
2018-06-15T04:16:11.888Z,17.60
2018-06-15T04:17:11.795Z,17.67
2018-06-15T04:18:11.694Z,17.65
2018-06-15T04:19:11.613Z,17.65
2018-06-15T04:20:11.511Z,17.64
2018-06-15T04:21:11.407Z,17.64
2018-06-15T04:22:11.315Z,17.60
2018-06-15T04:23:11.225Z,17.67
2018-06-15T04:24:11.122Z,17.63
2018-06-15T04:25:11.031Z,17.60
2018-06-15T04:26:10.941Z,17.67
2018-06-15T04:27:10.849Z,17.59
2018-06-15T04:28:10.745Z,17.64
2018-06-15T04:29:10.655Z,17.72
2018-06-15T04:30:10.564Z,17.71
2018-06-15T04:31:10.461Z,17.80
2018-06-15T04:32:10.371Z,17.82
2018-06-15T04:33:10.279Z,17.86
2018-06-15T04:34:10.176Z,17.80
2018-06-15T04:35:10.086Z,17.89
2018-06-15T04:36:09.994Z,17.87
2018-06-15T04:37:09.904Z,17.94
2018-06-15T04:38:09.803Z,18.07
2018-06-15T04:39:09.709Z,18.05
2018-06-15T04:40:09.870Z,18.04
2018-06-15T04:41:09.516Z,18.15
2018-06-15T04:42:09.425Z,18.13
2018-06-15T04:43:09.334Z,18.15
2018-06-15T04:44:09.242Z,18.31
2018-06-15T04:45:09.141Z,18.22
2018-06-15T04:46:09.049Z,18.25
2018-06-15T04:47:08.959Z,18.33
2018-06-15T04:48:08.869Z,18.41
2018-06-15T04:49:08.764Z,18.34
2018-06-15T04:50:08.673Z,18.22
2018-06-15T04:51:08.586Z,18.35
2018-06-15T04:52:08.482Z,18.37
2018-06-15T04:53:08.390Z,18.34
2018-06-15T04:54:08.298Z,18.37
2018-06-15T04:55:08.206Z,18.49
2018-06-15T04:56:08.104Z,18.44
2018-06-15T04:57:08.013Z,18.49
2018-06-15T04:58:07.921Z,18.50
2018-06-15T04:59:07.832Z,18.41
2018-06-15T05:00:07.979Z,18.58
2018-06-15T05:01:07.638Z,18.59
2018-06-15T05:02:07.547Z,18.63
2018-06-15T05:03:07.455Z,18.68
2018-06-15T05:04:07.352Z,18.65
2018-06-15T05:05:07.263Z,18.60
2018-06-15T05:06:07.175Z,18.73
2018-06-15T05:07:07.079Z,18.77
2018-06-15T05:08:06.976Z,18.84
2018-06-15T05:09:06.942Z,18.92
2018-06-15T05:10:06.798Z,18.99
2018-06-15T05:11:06.706Z,19.04
2018-06-15T05:12:06.602Z,19.02
2018-06-15T05:13:06.512Z,19.14
2018-06-15T05:14:06.418Z,19.16
2018-06-15T05:15:06.329Z,19.16
2018-06-15T05:16:06.239Z,19.15
2018-06-15T05:17:06.134Z,19.11
2018-06-15T05:18:06.044Z,19.15
2018-06-15T05:19:05.952Z,19.14
2018-06-15T05:20:06.122Z,19.22
2018-06-15T05:21:05.773Z,19.31
2018-06-15T05:22:05.667Z,19.41
2018-06-15T05:23:05.577Z,19.40
2018-06-15T05:24:05.485Z,19.49
2018-06-15T05:25:05.395Z,19.56
2018-06-15T05:26:05.304Z,19.45
2018-06-15T05:27:05.201Z,19.39
2018-06-15T05:28:05.111Z,19.37
2018-06-15T05:29:05.019Z,19.41
2018-06-15T05:30:04.946Z,19.40
2018-06-15T05:31:04.851Z,19.48
2018-06-15T05:32:04.734Z,19.54
2018-06-15T05:33:04.644Z,19.58
2018-06-15T05:34:04.552Z,19.54
2018-06-15T05:35:04.463Z,19.37
2018-06-15T05:36:04.370Z,19.37
2018-06-15T05:37:04.280Z,19.48
2018-06-15T05:38:04.178Z,19.48
2018-06-15T05:39:04.086Z,19.44
2018-06-15T05:40:03.995Z,19.47
2018-06-15T05:41:03.904Z,19.59
2018-06-15T05:42:03.813Z,19.51
2018-06-15T05:43:03.711Z,19.56
2018-06-15T05:44:03.618Z,19.64
2018-06-15T05:45:03.529Z,19.79
2018-06-15T05:46:03.438Z,19.74
2018-06-15T05:47:03.347Z,19.79
2018-06-15T05:48:03.256Z,19.70
2018-06-15T05:49:03.154Z,19.73
2018-06-15T05:50:03.063Z,19.69
2018-06-15T05:51:02.971Z,19.64
2018-06-15T05:52:02.883Z,19.69
2018-06-15T05:53:02.789Z,19.64
2018-06-15T05:54:02.703Z,19.69
2018-06-15T05:55:02.597Z,19.66
2018-06-15T05:56:02.505Z,19.76
2018-06-15T05:57:02.415Z,19.86
2018-06-15T05:58:02.323Z,19.91
2018-06-15T05:59:02.233Z,19.92
2018-06-15T06:00:02.154Z,20.03
2018-06-15T06:01:02.055Z,20.13
2018-06-15T06:02:01.949Z,20.07
2018-06-15T06:03:01.856Z,20.04
2018-06-15T06:04:01.850Z,20.03
2018-06-15T06:05:01.676Z,20.02
2018-06-15T06:06:01.585Z,20.14
2018-06-15T06:07:01.494Z,20.07
2018-06-15T06:08:01.403Z,20.09
2018-06-15T06:09:01.301Z,20.14
2018-06-15T06:10:01.208Z,20.26
2018-06-15T06:11:01.118Z,20.28
2018-06-15T06:12:01.026Z,20.36
2018-06-15T06:13:00.937Z,20.40
2018-06-15T06:14:00.844Z,20.40
2018-06-15T06:15:00.754Z,20.36
2018-06-15T06:16:00.652Z,20.41
2018-06-15T06:17:00.559Z,20.51
2018-06-15T06:18:00.473Z,20.63
2018-06-15T06:19:00.378Z,20.62
2018-06-15T06:20:00.347Z,20.59
2018-06-15T06:21:00.196Z,20.43
2018-06-15T06:22:00.107Z,20.41
2018-06-15T06:23:00.017Z,20.41
2018-06-15T06:23:59.913Z,20.41
2018-06-15T06:25:00.074Z,20.40
2018-06-15T06:25:59.731Z,20.37
2018-06-15T06:26:59.641Z,20.48
2018-06-15T06:27:59.548Z,20.40
2018-06-15T06:28:59.459Z,20.29
2018-06-15T06:29:59.367Z,20.29
2018-06-15T06:30:59.276Z,20.24
2018-06-15T06:31:59.185Z,20.47
2018-06-15T06:32:59.095Z,20.58
2018-06-15T06:33:58.991Z,20.55
2018-06-15T06:34:58.900Z,20.50
2018-06-15T06:35:58.809Z,20.55
2018-06-15T06:36:58.725Z,20.43
2018-06-15T06:37:58.694Z,20.50
2018-06-15T06:38:58.536Z,20.50
2018-06-15T06:39:58.448Z,20.47
2018-06-15T06:40:58.355Z,20.50
2018-06-15T06:41:58.265Z,20.65
2018-06-15T06:42:58.173Z,20.70
2018-06-15T06:43:58.073Z,20.74
2018-06-15T06:44:58.230Z,20.69
2018-06-15T06:45:57.888Z,20.74
2018-06-15T06:46:57.798Z,20.74
2018-06-15T06:47:57.707Z,20.56
2018-06-15T06:48:57.617Z,20.74
2018-06-15T06:49:57.528Z,20.78
2018-06-15T06:50:57.436Z,20.69
2018-06-15T06:51:57.344Z,20.82
2018-06-15T06:52:57.254Z,20.72
2018-06-15T06:53:57.163Z,20.75
2018-06-15T06:54:57.072Z,20.78
2018-06-15T06:55:56.981Z,20.78
2018-06-15T06:56:56.879Z,20.85
2018-06-15T06:57:56.789Z,20.87
2018-06-15T06:58:56.696Z,20.81
2018-06-15T06:59:56.860Z,20.81
2018-06-15T07:00:56.514Z,20.85
2018-06-15T07:01:56.424Z,20.81
2018-06-15T07:02:56.338Z,20.75
2018-06-15T07:03:56.243Z,20.70
2018-06-15T07:04:56.151Z,20.72
2018-06-15T07:05:56.061Z,20.80
2018-06-15T07:06:55.970Z,20.85
2018-06-15T07:07:55.879Z,20.85
2018-06-15T07:08:55.789Z,20.81
2018-06-15T07:09:55.935Z,20.85
2018-06-15T07:10:55.595Z,20.81
2018-06-15T07:11:55.502Z,20.74
2018-06-15T07:12:55.413Z,20.82
2018-06-15T07:13:55.324Z,20.85
2018-06-15T07:14:55.231Z,20.75
2018-06-15T07:15:55.144Z,20.87
2018-06-15T07:16:55.055Z,20.72
2018-06-15T07:17:54.958Z,20.81
2018-06-15T07:18:54.869Z,20.75
2018-06-15T07:19:54.776Z,20.66
2018-06-15T07:20:54.687Z,20.78
2018-06-15T07:21:54.594Z,20.87
2018-06-15T07:22:54.493Z,20.93
2018-06-15T07:23:54.409Z,21.00
2018-06-15T07:24:54.310Z,20.99
2018-06-15T07:25:54.220Z,21.06
2018-06-15T07:26:54.128Z,21.18
2018-06-15T07:27:54.039Z,21.21
2018-06-15T07:28:53.946Z,21.27
2018-06-15T07:29:53.856Z,21.36
2018-06-15T07:30:53.765Z,21.48
2018-06-15T07:31:53.676Z,21.54
2018-06-15T07:32:53.584Z,21.42
2018-06-15T07:33:53.494Z,21.55
2018-06-15T07:34:53.416Z,21.64
2018-06-15T07:35:53.312Z,21.73
2018-06-15T07:36:53.220Z,21.88
2018-06-15T07:37:53.120Z,22.04
2018-06-15T07:38:53.038Z,21.93
2018-06-15T07:39:52.937Z,21.99
2018-06-15T07:40:52.845Z,22.02
2018-06-15T07:41:52.754Z,21.96
2018-06-15T07:42:52.664Z,21.85
2018-06-15T07:43:52.572Z,22.00
2018-06-15T07:44:52.482Z,21.91
2018-06-15T07:45:52.390Z,21.70
2018-06-15T07:46:52.301Z,21.82
2018-06-15T07:47:52.222Z,22.02
2018-06-15T07:48:52.118Z,22.08
2018-06-15T07:49:52.028Z,22.07
2018-06-15T07:50:51.937Z,22.32
2018-06-15T07:51:51.848Z,22.50
2018-06-15T07:52:51.756Z,22.63
2018-06-15T07:53:51.664Z,22.76
2018-06-15T07:54:51.573Z,22.98
2018-06-15T07:55:51.483Z,23.02
2018-06-15T07:56:51.393Z,23.31
2018-06-15T07:57:51.301Z,23.73
2018-06-15T07:58:51.222Z,23.98
2018-06-15T07:59:51.133Z,24.08
2018-06-15T08:00:51.040Z,24.36
2018-06-15T08:01:50.950Z,24.55
2018-06-15T08:02:50.858Z,24.61
2018-06-15T08:03:50.769Z,24.73
2018-06-15T08:04:50.677Z,24.77
2018-06-15T08:05:50.587Z,24.51
2018-06-15T08:06:50.495Z,24.38
2018-06-15T08:07:50.406Z,24.28
2018-06-15T08:08:50.315Z,24.18
2018-06-15T08:09:50.238Z,24.10
2018-06-15T08:10:50.146Z,24.13
2018-06-15T08:11:50.062Z,24.28
2018-06-15T08:12:49.962Z,24.28
2018-06-15T08:13:49.872Z,24.03
2018-06-15T08:14:49.782Z,24.06
2018-06-15T08:15:49.735Z,24.26
2018-06-15T08:16:49.612Z,24.17
2018-06-15T08:17:49.524Z,24.03
2018-06-15T08:18:49.431Z,24.01
2018-06-15T08:19:49.341Z,24.08
2018-06-15T08:20:49.253Z,24.06
2018-06-15T08:21:49.159Z,23.98
2018-06-15T08:22:49.069Z,23.76
2018-06-15T08:23:48.990Z,23.87
2018-06-15T08:24:48.900Z,23.83
2018-06-15T08:25:48.807Z,23.77
2018-06-15T08:26:48.717Z,23.76
2018-06-15T08:27:48.677Z,23.59
2018-06-15T08:28:48.536Z,23.71
2018-06-15T08:29:48.445Z,23.37
2018-06-15T08:30:48.365Z,23.51
2018-06-15T08:31:48.275Z,23.76
2018-06-15T08:32:48.184Z,23.61
2018-06-15T08:33:48.104Z,23.41
2018-06-15T08:34:48.003Z,23.61
2018-06-15T08:35:47.913Z,23.92
2018-06-15T08:36:47.834Z,24.14
2018-06-15T08:37:47.751Z,24.24
2018-06-15T08:38:47.653Z,24.01
2018-06-15T08:39:47.561Z,24.10
2018-06-15T08:40:47.471Z,24.30
2018-06-15T08:41:47.382Z,24.36
2018-06-15T08:42:47.300Z,24.48
2018-06-15T08:43:47.211Z,24.43
2018-06-15T08:44:47.120Z,24.45
2018-06-15T08:45:47.033Z,24.16
2018-06-15T08:46:46.938Z,24.16
2018-06-15T08:47:46.849Z,24.23
2018-06-15T08:48:46.759Z,24.33
2018-06-15T08:49:46.719Z,24.39
2018-06-15T08:50:46.589Z,24.53
2018-06-15T08:51:46.496Z,24.50
2018-06-15T08:52:46.433Z,24.42
2018-06-15T08:53:46.315Z,24.53
2018-06-15T08:54:46.224Z,24.76
2018-06-15T08:55:46.147Z,24.50
2018-06-15T08:56:46.097Z,24.58
2018-06-15T08:57:45.964Z,24.60
2018-06-15T08:58:45.873Z,24.70
2018-06-15T08:59:46.033Z,24.70
2018-06-15T09:00:45.704Z,24.66
2018-06-15T09:01:45.629Z,24.61
2018-06-15T09:02:45.523Z,24.61
2018-06-15T09:03:45.431Z,24.77
2018-06-15T09:04:45.344Z,24.99
2018-06-15T09:05:45.263Z,24.73
2018-06-15T09:06:45.171Z,24.84
2018-06-15T09:07:45.082Z,24.86
2018-06-15T09:08:44.991Z,25.13
2018-06-15T09:09:44.901Z,25.07
2018-06-15T09:10:44.822Z,24.86
2018-06-15T09:11:44.729Z,25.26
2018-06-15T09:12:44.639Z,25.08
2018-06-15T09:13:44.549Z,24.78
2018-06-15T09:14:44.470Z,24.58
2018-06-15T09:15:44.381Z,24.48
2018-06-15T09:16:44.288Z,24.51
2018-06-15T09:17:44.205Z,24.45
2018-06-15T09:18:44.119Z,24.53
2018-06-15T09:19:44.029Z,24.58
2018-06-15T09:20:43.941Z,24.58
2018-06-15T09:21:43.847Z,24.73
2018-06-15T09:22:43.758Z,24.77
2018-06-15T09:23:43.678Z,24.85
2018-06-15T09:24:43.588Z,24.93
2018-06-15T09:25:43.497Z,24.70
2018-06-15T09:26:43.405Z,24.53
2018-06-15T09:27:43.329Z,24.48
2018-06-15T09:28:43.239Z,24.54
2018-06-15T09:29:43.145Z,24.51
2018-06-15T09:30:43.085Z,24.55
2018-06-15T09:31:42.965Z,24.61
2018-06-15T09:32:42.933Z,24.69
2018-06-15T09:33:42.790Z,24.81
2018-06-15T09:34:42.704Z,24.48
2018-06-15T09:35:42.615Z,24.63
2018-06-15T09:36:42.523Z,24.66
2018-06-15T09:37:42.432Z,24.43
2018-06-15T09:38:42.341Z,24.48
2018-06-15T09:39:42.262Z,24.47
2018-06-15T09:40:42.175Z,24.39
2018-06-15T09:41:42.080Z,24.42
2018-06-15T09:42:41.991Z,24.35
2018-06-15T09:43:41.900Z,24.55
2018-06-15T09:44:41.822Z,24.78
2018-06-15T09:45:41.730Z,25.03
2018-06-15T09:46:41.639Z,25.43
2018-06-15T09:47:41.552Z,25.70
2018-06-15T09:48:41.458Z,25.63
2018-06-15T09:49:41.379Z,25.69
2018-06-15T09:50:41.289Z,26.00
2018-06-15T09:51:41.197Z,26.31
2018-06-15T09:52:41.106Z,26.40
2018-06-15T09:53:41.024Z,26.55
2018-06-15T09:54:40.937Z,26.63
2018-06-15T09:55:40.848Z,27.37
2018-06-15T09:56:40.756Z,27.45
2018-06-15T09:57:40.677Z,28.11
2018-06-15T09:58:40.589Z,27.68
2018-06-15T09:59:40.495Z,28.08
2018-06-15T10:00:40.419Z,27.73
2018-06-15T10:01:40.327Z,27.73
2018-06-15T10:02:40.236Z,28.64
2018-06-15T10:03:40.162Z,29.07
2018-06-15T10:04:40.068Z,28.79
2018-06-15T10:05:39.989Z,28.74
2018-06-15T10:06:39.897Z,28.49
2018-06-15T10:07:39.808Z,28.67
2018-06-15T10:08:39.730Z,28.70
2018-06-15T10:09:39.652Z,28.22
2018-06-15T10:10:39.560Z,28.59
2018-06-15T10:11:39.470Z,28.85
2018-06-15T10:12:39.394Z,28.52
2018-06-15T10:13:39.302Z,28.35
2018-06-15T10:14:39.221Z,27.82
2018-06-15T10:15:39.134Z,27.44
2018-06-15T10:16:39.088Z,26.92
2018-06-15T10:17:38.962Z,26.81
2018-06-15T10:18:38.883Z,26.74
2018-06-15T10:19:39.043Z,26.22
2018-06-15T10:20:38.716Z,25.78
2018-06-15T10:21:38.624Z,25.98
2018-06-15T10:22:38.547Z,26.06
2018-06-15T10:23:38.456Z,26.09
2018-06-15T10:24:38.377Z,26.25
2018-06-15T10:25:38.285Z,26.59
2018-06-15T10:26:38.220Z,26.78
2018-06-15T10:27:38.118Z,26.56
2018-06-15T10:28:38.026Z,26.48
2018-06-15T10:29:37.947Z,26.78
2018-06-15T10:30:37.857Z,27.36
2018-06-15T10:31:37.779Z,27.26
2018-06-15T10:32:37.688Z,26.96
2018-06-15T10:33:37.609Z,26.34
2018-06-15T10:34:37.518Z,25.88
2018-06-15T10:35:37.440Z,25.96
2018-06-15T10:36:37.349Z,26.09
2018-06-15T10:37:37.259Z,25.91
2018-06-15T10:38:37.180Z,26.03
2018-06-15T10:39:37.133Z,26.06
2018-06-15T10:40:37.011Z,26.26
2018-06-15T10:41:36.921Z,26.26
2018-06-15T10:42:36.831Z,25.69
2018-06-15T10:43:36.751Z,25.28
2018-06-15T10:44:36.660Z,25.28
2018-06-15T10:45:36.593Z,25.31
2018-06-15T10:46:36.491Z,25.11
2018-06-15T10:47:36.405Z,25.28
2018-06-15T10:48:36.323Z,25.51
2018-06-15T10:49:36.230Z,25.73
2018-06-15T10:50:36.142Z,26.15
2018-06-15T10:51:36.063Z,26.19
2018-06-15T10:52:35.971Z,26.47
2018-06-15T10:53:35.881Z,26.75
2018-06-15T10:54:35.802Z,27.11
2018-06-15T10:55:35.711Z,27.27
2018-06-15T10:56:35.634Z,27.07
2018-06-15T10:57:35.543Z,27.51
2018-06-15T10:58:35.452Z,28.02
2018-06-15T10:59:35.372Z,28.38
2018-06-15T11:00:35.282Z,28.41
2018-06-15T11:01:35.192Z,28.76
2018-06-15T11:02:35.113Z,28.08
2018-06-15T11:03:35.024Z,27.77
2018-06-15T11:04:34.945Z,27.35
2018-06-15T11:05:34.853Z,27.30
2018-06-15T11:06:34.779Z,27.33
2018-06-15T11:07:34.685Z,27.42
2018-06-15T11:08:34.608Z,27.32
2018-06-15T11:09:34.517Z,27.18
2018-06-15T11:10:34.425Z,27.51
2018-06-15T11:11:34.347Z,27.47
2018-06-15T11:12:34.255Z,27.80
2018-06-15T11:13:34.177Z,27.48
2018-06-15T11:14:34.146Z,27.21
2018-06-15T11:15:34.008Z,27.45
2018-06-15T11:16:33.916Z,27.22
2018-06-15T11:17:33.827Z,27.36
2018-06-15T11:18:33.752Z,27.05
2018-06-15T11:19:33.657Z,26.99
2018-06-15T11:20:33.580Z,26.51
2018-06-15T11:21:33.488Z,26.63
2018-06-15T11:22:33.410Z,26.71
2018-06-15T11:23:33.359Z,26.71
2018-06-15T11:24:33.239Z,26.96
2018-06-15T11:25:33.150Z,26.95
2018-06-15T11:26:33.065Z,27.18
2018-06-15T11:27:32.980Z,27.08
2018-06-15T11:28:32.893Z,27.10
2018-06-15T11:29:32.799Z,26.90
2018-06-15T11:30:32.733Z,26.83
2018-06-15T11:31:32.630Z,26.60
2018-06-15T11:32:32.551Z,26.21
2018-06-15T11:33:32.460Z,26.06
2018-06-15T11:34:32.371Z,25.96
2018-06-15T11:35:32.291Z,26.02
2018-06-15T11:36:32.200Z,25.91
2018-06-15T11:37:32.121Z,25.80
2018-06-15T11:38:32.032Z,25.48
2018-06-15T11:39:31.942Z,25.35
2018-06-15T11:40:31.861Z,25.26
2018-06-15T11:41:31.773Z,25.08
2018-06-15T11:42:31.682Z,25.14
2018-06-15T11:43:31.602Z,24.98
2018-06-15T11:44:31.516Z,24.95
2018-06-15T11:45:31.420Z,24.99
2018-06-15T11:46:31.331Z,24.99
2018-06-15T11:47:31.253Z,25.03
2018-06-15T11:48:31.163Z,25.01
2018-06-15T11:49:31.069Z,25.22
2018-06-15T11:50:30.993Z,24.91
2018-06-15T11:51:30.900Z,24.73
2018-06-15T11:52:30.811Z,24.74
2018-06-15T11:53:30.721Z,24.63
2018-06-15T11:54:30.640Z,24.68
2018-06-15T11:55:30.550Z,24.43
2018-06-15T11:56:30.458Z,24.13
2018-06-15T11:57:30.408Z,24.13
2018-06-15T11:58:30.302Z,24.08
2018-06-15T11:59:30.199Z,24.18
2018-06-15T12:00:30.109Z,24.17
2018-06-15T12:01:30.018Z,24.13
2018-06-15T12:02:29.926Z,24.16
2018-06-15T12:03:29.851Z,24.14
2018-06-15T12:04:29.756Z,23.92
2018-06-15T12:05:29.667Z,23.62
2018-06-15T12:06:29.576Z,23.44
2018-06-15T12:07:29.485Z,23.41
2018-06-15T12:08:29.396Z,23.31
2018-06-15T12:09:29.316Z,23.27
2018-06-15T12:10:29.226Z,23.23
2018-06-15T12:11:29.133Z,23.24
2018-06-15T12:12:29.044Z,23.13
2018-06-15T12:13:28.957Z,23.17
2018-06-15T12:14:28.862Z,23.13
2018-06-15T12:15:28.772Z,23.09
2018-06-15T12:16:28.692Z,23.03
2018-06-15T12:17:28.604Z,23.02
2018-06-15T12:18:28.513Z,23.03
2018-06-15T12:19:28.420Z,23.08
2018-06-15T12:20:28.329Z,23.17
2018-06-15T12:21:28.238Z,23.24
2018-06-15T12:22:28.147Z,23.24
2018-06-15T12:23:28.069Z,23.31
2018-06-15T12:24:27.969Z,23.40
2018-06-15T12:25:27.876Z,23.47
2018-06-15T12:26:27.786Z,23.54
2018-06-15T12:27:27.706Z,23.66
2018-06-15T12:28:27.621Z,23.76
2018-06-15T12:29:27.524Z,23.80
2018-06-15T12:30:27.435Z,23.77
2018-06-15T12:31:27.343Z,23.78
2018-06-15T12:32:27.252Z,23.62
2018-06-15T12:33:27.161Z,23.51
2018-06-15T12:34:27.071Z,23.66
2018-06-15T12:35:26.980Z,23.77
2018-06-15T12:36:26.890Z,23.71
2018-06-15T12:37:26.798Z,23.77
2018-06-15T12:38:26.709Z,24.05
2018-06-15T12:39:26.617Z,23.83
2018-06-15T12:40:26.527Z,23.92
2018-06-15T12:41:26.436Z,23.99
2018-06-15T12:42:26.357Z,24.23
2018-06-15T12:43:26.266Z,24.24
2018-06-15T12:44:26.174Z,24.38
2018-06-15T12:45:26.086Z,24.65
2018-06-15T12:46:25.994Z,24.66
2018-06-15T12:47:25.902Z,24.89
2018-06-15T12:48:25.811Z,25.21
2018-06-15T12:49:25.721Z,25.29
2018-06-15T12:50:25.630Z,25.46
2018-06-15T12:51:25.545Z,25.69